Aviation Digital Data Service (ADDS)

Output produced by METARs form (2112 UTC 09 December 2016)
found at http://aviationweather.gov/adds/metars/
 
KROA 091733Z 0918/1018 31012G22KT P6SM BKN040 
     FM092300 31009KT P6SM SKC 
     FM100600 31004KT P6SM FEW250